createdAt,value
2022-12-11T00:00:43.804Z,36.92
2022-12-11T00:03:15.650Z,27.27
2022-12-11T00:05:43.298Z,29.90
2022-12-11T00:08:10.161Z,29.30
2022-12-11T00:10:38.042Z,31.40
2022-12-11T00:13:05.324Z,31.33
2022-12-11T00:15:33.233Z,26.85
2022-12-11T00:17:59.787Z,35.45
2022-12-11T00:20:26.340Z,31.98
2022-12-11T00:22:52.876Z,28.30
2022-12-11T00:25:19.370Z,29.55
2022-12-11T00:27:46.228Z,33.30
2022-12-11T00:30:13.592Z,32.40
2022-12-11T00:32:41.512Z,26.73
2022-12-11T00:35:09.285Z,29.85
2022-12-11T00:37:36.067Z,29.58
2022-12-11T00:40:02.677Z,35.22
2022-12-11T00:42:29.235Z,29.58
2022-12-11T00:44:55.723Z,32.22
2022-12-11T00:47:22.276Z,33.58
2022-12-11T00:49:50.390Z,30.27
2022-12-11T00:52:16.965Z,33.40
2022-12-11T00:54:43.456Z,26.63
2022-12-11T00:57:09.977Z,30.35
2022-12-11T00:59:36.508Z,29.48
2022-12-11T01:02:03.156Z,26.92
2022-12-11T01:04:29.716Z,30.30
2022-12-11T01:06:57.655Z,27.48
2022-12-11T01:09:24.175Z,27.92
2022-12-11T01:11:50.733Z,26.90
2022-12-11T01:14:17.289Z,23.05
2022-12-11T01:16:43.982Z,28.75
2022-12-11T01:19:10.558Z,29.42
2022-12-11T01:21:37.122Z,25.95
2022-12-11T01:24:05.744Z,27.00
2022-12-11T01:26:32.261Z,28.63
2022-12-11T01:28:58.813Z,34.17
2022-12-11T01:31:25.461Z,25.42
2022-12-11T01:33:54.095Z,24.48
2022-12-11T01:36:21.946Z,29.25
2022-12-11T01:38:49.583Z,29.05
2022-12-11T01:41:18.228Z,22.92
2022-12-11T01:43:59.159Z,27.60
2022-12-11T01:46:26.570Z,31.25
2022-12-11T01:48:54.113Z,26.63
2022-12-11T01:51:21.065Z,27.25
2022-12-11T01:53:53.562Z,25.25
2022-12-11T01:56:21.633Z,24.33
2022-12-11T01:58:53.783Z,23.35
2022-12-11T02:01:25.325Z,27.80
2022-12-11T02:03:53.414Z,25.10
2022-12-11T02:06:35.406Z,23.33
2022-12-11T02:09:03.226Z,26.30
2022-12-11T02:11:39.242Z,20.40
2022-12-11T02:14:10.897Z,22.70
2022-12-11T02:16:45.623Z,22.92
2022-12-11T02:19:30.813Z,24.70
2022-12-11T02:22:01.374Z,26.35
2022-12-11T02:24:40.818Z,25.65
2022-12-11T02:27:28.564Z,23.80
2022-12-11T02:30:01.915Z,23.13
2022-12-11T02:35:06.821Z,24.60
2022-12-11T02:37:37.622Z,23.55
2022-12-11T02:40:07.631Z,22.75
2022-12-11T02:42:36.532Z,23.33
2022-12-11T02:45:07.350Z,25.15
2022-12-11T02:47:34.144Z,26.35
2022-12-11T02:50:04.186Z,24.23
2022-12-11T02:52:32.307Z,26.20
2022-12-11T02:55:00.788Z,24.35
2022-12-11T02:57:33.694Z,26.13
2022-12-11T03:00:00.312Z,25.98
2022-12-11T03:02:28.336Z,27.27
2022-12-11T03:04:54.986Z,23.10
2022-12-11T03:07:25.798Z,25.73
2022-12-11T03:09:52.944Z,24.67
2022-12-11T03:12:24.062Z,22.25
2022-12-11T03:14:50.895Z,24.00
2022-12-11T03:17:21.061Z,31.08
2022-12-11T03:19:57.415Z,24.58
2022-12-11T03:22:31.227Z,26.33
2022-12-11T03:25:02.508Z,23.50
2022-12-11T03:27:36.129Z,27.00
2022-12-11T03:30:06.524Z,22.00
2022-12-11T03:32:39.645Z,27.52
2022-12-11T03:35:14.527Z,24.70
2022-12-11T03:37:43.441Z,25.52
2022-12-11T03:40:14.453Z,24.50
2022-12-11T03:42:42.597Z,24.20
2022-12-11T03:45:10.794Z,24.90
2022-12-11T03:47:39.734Z,23.63
2022-12-11T03:50:10.842Z,25.75
2022-12-11T03:52:45.345Z,24.80
2022-12-11T03:55:13.851Z,23.70
2022-12-11T03:57:40.385Z,23.50
2022-12-11T04:00:10.829Z,29.15
2022-12-11T04:02:37.362Z,31.60
2022-12-11T04:05:04.391Z,26.50
2022-12-11T04:07:32.322Z,24.58
2022-12-11T04:10:00.241Z,24.85
2022-12-11T04:12:26.774Z,26.73
2022-12-11T04:14:53.302Z,26.92
2022-12-11T04:17:20.055Z,26.13
2022-12-11T04:19:46.547Z,25.27
2022-12-11T04:22:14.571Z,28.48
2022-12-11T04:24:42.582Z,25.08
2022-12-11T04:27:09.110Z,23.42
2022-12-11T04:29:35.678Z,30.83
2022-12-11T04:32:02.240Z,22.20
2022-12-11T04:34:29.031Z,25.42
2022-12-11T04:36:55.646Z,23.00
2022-12-11T04:39:22.178Z,26.25
2022-12-11T04:41:50.034Z,22.88
2022-12-11T04:44:16.614Z,25.33
2022-12-11T04:46:43.207Z,24.42
2022-12-11T04:49:09.888Z,27.10
2022-12-11T04:51:36.470Z,29.77
2022-12-11T04:54:03.062Z,27.60
2022-12-11T04:56:29.590Z,24.65
2022-12-11T04:58:57.417Z,24.23
2022-12-11T05:01:24.100Z,25.98
2022-12-11T05:03:50.712Z,29.35
2022-12-11T05:06:17.573Z,26.25
2022-12-11T05:08:44.435Z,28.08
2022-12-11T05:11:12.824Z,28.10
2022-12-11T05:13:39.422Z,28.83
2022-12-11T05:16:09.689Z,26.13
2022-12-11T05:18:36.392Z,29.65
2022-12-11T05:21:05.435Z,29.48
2022-12-11T05:23:32.785Z,28.83
2022-12-11T05:26:01.260Z,29.10
2022-12-11T05:28:31.818Z,32.90
2022-12-11T05:31:00.395Z,28.67
2022-12-11T05:33:28.880Z,30.73
2022-12-11T05:35:55.446Z,30.77
2022-12-11T05:38:22.007Z,31.65
2022-12-11T05:40:55.836Z,30.88
2022-12-11T05:43:22.366Z,31.20
2022-12-11T05:45:48.892Z,31.02
2022-12-11T05:48:15.453Z,24.55
2022-12-11T05:50:43.319Z,28.15
2022-12-11T05:53:09.795Z,30.85
2022-12-11T05:55:36.355Z,28.42
2022-12-11T05:58:02.942Z,29.98
2022-12-11T06:00:35.710Z,30.85
2022-12-11T06:03:02.909Z,30.35
2022-12-11T06:05:29.516Z,32.72
2022-12-11T06:07:57.424Z,29.92
2022-12-11T06:10:24.005Z,29.92
2022-12-11T06:12:50.547Z,32.17
2022-12-11T06:15:17.186Z,27.17
2022-12-11T06:17:43.720Z,28.40
2022-12-11T06:20:11.020Z,31.00
2022-12-11T06:22:37.543Z,29.08
2022-12-11T06:25:06.776Z,27.73
2022-12-11T06:27:33.551Z,33.40
2022-12-11T06:30:00.149Z,30.95
2022-12-11T06:32:26.844Z,32.15
2022-12-11T06:34:53.439Z,30.63
2022-12-11T06:37:19.936Z,27.23
2022-12-11T06:39:46.442Z,34.10
2022-12-11T06:42:14.339Z,32.28
2022-12-11T06:44:40.834Z,26.92
2022-12-11T06:47:07.354Z,32.40
2022-12-11T06:49:33.868Z,29.77
2022-12-11T06:52:00.389Z,33.13
2022-12-11T06:54:27.332Z,31.67
2022-12-11T06:56:53.812Z,34.50
2022-12-11T06:59:21.780Z,30.10
2022-12-11T07:01:48.374Z,32.85
2022-12-11T07:04:14.943Z,33.60
2022-12-11T07:06:41.508Z,35.30
2022-12-11T07:09:07.967Z,31.10
2022-12-11T07:11:34.540Z,33.25
2022-12-11T07:14:01.141Z,34.28
2022-12-11T07:16:29.070Z,36.28
2022-12-11T07:18:55.700Z,30.60
2022-12-11T07:21:22.328Z,31.63
2022-12-11T07:23:50.041Z,32.17
2022-12-11T07:26:18.447Z,29.13
2022-12-11T07:28:45.756Z,26.95
2022-12-11T07:31:14.992Z,30.40
2022-12-11T07:33:43.134Z,28.05
2022-12-11T07:36:12.082Z,26.90
2022-12-11T07:38:39.138Z,21.80
2022-12-11T07:41:07.375Z,26.27
2022-12-11T07:43:34.420Z,28.27
2022-12-11T07:46:01.299Z,26.88
2022-12-11T07:48:27.840Z,28.38
2022-12-11T07:50:55.766Z,27.83
2022-12-11T07:53:22.262Z,27.58
2022-12-11T07:55:48.779Z,25.05
2022-12-11T07:58:15.316Z,25.23
2022-12-11T08:00:44.021Z,27.38
2022-12-11T08:03:10.583Z,23.40
2022-12-11T08:05:37.114Z,22.63
2022-12-11T08:08:05.169Z,23.75
2022-12-11T08:10:31.881Z,21.27
2022-12-11T08:12:58.432Z,22.67
2022-12-11T08:15:24.914Z,20.75
2022-12-11T08:17:51.487Z,24.20
2022-12-11T08:20:17.995Z,22.80
2022-12-11T08:22:44.526Z,19.50
2022-12-11T08:25:12.706Z,22.02
2022-12-11T08:27:39.466Z,22.77
2022-12-11T08:30:07.204Z,24.33
2022-12-11T08:32:34.370Z,19.20
2022-12-11T08:35:01.296Z,18.10
2022-12-11T08:37:27.899Z,23.75
2022-12-11T08:39:54.437Z,21.75
2022-12-11T08:42:22.339Z,22.63
2022-12-11T08:44:48.925Z,26.58
2022-12-11T08:47:15.505Z,22.40
2022-12-11T08:49:42.094Z,24.50
2022-12-11T08:52:08.749Z,24.35
2022-12-11T08:54:36.672Z,23.27
2022-12-11T08:57:03.307Z,22.75
2022-12-11T08:59:31.387Z,20.13
2022-12-11T09:01:58.055Z,21.63
2022-12-11T09:04:24.634Z,19.13
2022-12-11T09:06:51.168Z,32.53
2022-12-11T09:09:17.935Z,22.13
2022-12-11T09:11:44.599Z,21.50
2022-12-11T09:14:11.144Z,23.10
2022-12-11T09:16:40.384Z,18.65
2022-12-11T09:19:09.433Z,23.13
2022-12-11T09:21:35.983Z,19.77
2022-12-11T09:24:02.583Z,23.20
2022-12-11T09:26:30.129Z,19.70
2022-12-11T09:28:57.327Z,22.60
2022-12-11T09:31:25.780Z,19.83
2022-12-11T09:33:55.709Z,19.92
2022-12-11T09:36:22.932Z,22.02
2022-12-11T09:38:49.531Z,24.98
2022-12-11T09:41:28.991Z,28.25
2022-12-11T09:44:02.446Z,21.85
2022-12-11T09:46:33.811Z,20.45
2022-12-11T09:49:03.761Z,23.30
2022-12-11T09:51:39.328Z,22.95
2022-12-11T09:54:06.298Z,23.65
2022-12-11T09:56:35.992Z,26.08
2022-12-11T09:59:13.040Z,18.73
2022-12-11T10:01:47.022Z,24.23
2022-12-11T10:04:30.301Z,21.55
2022-12-11T10:07:06.392Z,24.58
2022-12-11T10:09:39.199Z,24.33
2022-12-11T10:12:19.206Z,23.88
2022-12-11T10:15:13.606Z,24.15
2022-12-11T10:17:42.722Z,32.95
2022-12-11T10:20:20.368Z,22.65
2022-12-11T10:22:48.113Z,25.20
2022-12-11T10:25:20.625Z,25.42
2022-12-11T10:27:47.317Z,24.90
2022-12-11T10:30:16.525Z,21.20
2022-12-11T10:32:50.323Z,31.15
2022-12-11T10:35:27.835Z,24.17
2022-12-11T10:37:57.408Z,20.65
2022-12-11T10:40:25.829Z,28.95
2022-12-11T10:42:53.472Z,22.17
2022-12-11T10:45:20.548Z,24.70
2022-12-11T10:47:47.036Z,26.80
2022-12-11T10:50:24.621Z,28.45
2022-12-11T10:52:51.567Z,27.75
2022-12-11T10:55:21.510Z,40.60
2022-12-11T10:57:57.020Z,30.20
2022-12-11T11:00:32.879Z,29.35
2022-12-11T11:03:01.251Z,29.98
2022-12-11T11:05:31.770Z,21.00
2022-12-11T11:08:19.946Z,23.80
2022-12-11T11:10:51.661Z,25.60
2022-12-11T11:13:21.142Z,25.02
2022-12-11T11:15:48.414Z,24.73
2022-12-11T11:18:23.542Z,28.30
2022-12-11T11:20:51.606Z,24.20
2022-12-11T11:23:20.054Z,31.75
2022-12-11T11:25:51.138Z,21.67
2022-12-11T11:28:20.322Z,21.83
2022-12-11T11:30:57.984Z,22.88
2022-12-11T11:33:25.238Z,23.08
2022-12-11T11:35:54.383Z,31.85
2022-12-11T11:38:25.179Z,22.00
2022-12-11T11:41:04.208Z,25.55
2022-12-11T11:43:38.617Z,21.73
2022-12-11T11:46:12.174Z,24.65
2022-12-11T11:48:46.605Z,27.63
2022-12-11T11:51:19.905Z,26.20
2022-12-11T11:56:20.064Z,22.92
2022-12-11T11:58:53.795Z,22.92
2022-12-11T12:01:20.924Z,22.02
2022-12-11T12:03:49.189Z,21.38
2022-12-11T12:06:28.668Z,20.25
2022-12-11T12:09:01.148Z,19.40
2022-12-11T12:11:34.924Z,23.07
2022-12-11T12:14:43.775Z,22.30
2022-12-11T12:17:12.499Z,22.02
2022-12-11T12:19:49.720Z,19.65
2022-12-11T12:22:39.180Z,32.47
2022-12-11T12:25:16.459Z,23.05
2022-12-11T12:27:52.833Z,27.73
2022-12-11T12:30:23.462Z,23.90
2022-12-11T12:33:02.751Z,21.85
2022-12-11T12:35:35.863Z,18.10
2022-12-11T12:38:12.819Z,20.95
2022-12-11T12:40:50.354Z,23.23
2022-12-11T12:43:36.582Z,21.30
2022-12-11T12:46:14.417Z,25.15
2022-12-11T12:48:41.578Z,22.38
2022-12-11T12:51:13.447Z,29.35
2022-12-11T12:53:45.733Z,25.35
2022-12-11T12:56:12.902Z,24.85
2022-12-11T12:58:44.665Z,22.25
2022-12-11T13:01:17.168Z,22.52
2022-12-11T13:03:54.205Z,26.80
2022-12-11T13:06:35.648Z,23.80
2022-12-11T13:09:17.280Z,26.42
2022-12-11T13:11:45.180Z,27.35
2022-12-11T13:14:26.635Z,20.88
2022-12-11T13:17:04.718Z,29.00
2022-12-11T13:19:37.634Z,25.90
2022-12-11T13:22:21.702Z,25.23
2022-12-11T13:24:57.477Z,30.63
2022-12-11T13:27:25.841Z,26.38
2022-12-11T13:30:04.221Z,28.17
2022-12-11T13:32:31.355Z,23.30
2022-12-11T13:35:00.148Z,26.77
2022-12-11T13:37:31.306Z,21.13
2022-12-11T13:39:59.816Z,24.55
2022-12-11T13:42:30.476Z,23.85
2022-12-11T13:44:57.598Z,22.35
2022-12-11T13:47:24.976Z,21.05
2022-12-11T13:49:55.401Z,27.02
2022-12-11T13:52:24.081Z,25.02
2022-12-11T13:54:52.711Z,24.00
2022-12-11T13:57:23.108Z,28.65
2022-12-11T13:59:51.403Z,26.25
2022-12-11T14:02:21.270Z,25.58
2022-12-11T14:04:49.656Z,25.88
2022-12-11T14:07:20.608Z,24.05
2022-12-11T14:09:47.202Z,23.67
2022-12-11T14:12:21.483Z,24.85
2022-12-11T14:14:51.403Z,23.45
2022-12-11T14:17:23.943Z,21.83
2022-12-11T14:19:50.599Z,22.43
2022-12-11T14:22:19.720Z,28.40
2022-12-11T14:24:51.298Z,23.85
2022-12-11T14:27:18.478Z,32.17
2022-12-11T14:29:47.019Z,30.00
2022-12-11T14:32:20.160Z,24.45
2022-12-11T14:34:49.573Z,27.17
2022-12-11T14:37:20.151Z,26.80
2022-12-11T14:39:54.895Z,29.67
2022-12-11T14:42:24.942Z,23.90
2022-12-11T14:44:56.715Z,33.38
2022-12-11T14:47:27.162Z,24.52
2022-12-11T14:49:58.193Z,38.15
2022-12-11T14:52:30.324Z,31.58
2022-12-11T14:55:02.906Z,42.47
2022-12-11T14:57:33.253Z,34.25
2022-12-11T15:00:02.372Z,26.20
2022-12-11T15:02:31.957Z,27.95
2022-12-11T15:05:14.595Z,30.67
2022-12-11T15:07:43.209Z,24.30
2022-12-11T15:10:22.877Z,42.63
2022-12-11T15:12:49.882Z,32.50
2022-12-11T15:15:19.014Z,32.25
2022-12-11T15:17:52.545Z,27.48
2022-12-11T15:20:26.842Z,32.30
2022-12-11T15:22:54.700Z,39.92
2022-12-11T15:25:24.012Z,30.35
2022-12-11T15:27:52.807Z,42.92
2022-12-11T15:30:29.904Z,43.40
2022-12-11T15:33:19.394Z,37.20
2022-12-11T15:36:00.636Z,36.33
2022-12-11T15:38:35.992Z,27.58
2022-12-11T15:41:03.936Z,31.85
2022-12-11T15:43:34.473Z,35.45
2022-12-11T15:46:03.289Z,41.97
2022-12-11T15:48:29.943Z,31.77
2022-12-11T15:50:56.465Z,31.85
2022-12-11T15:53:23.082Z,30.65
2022-12-11T15:55:49.992Z,35.47
2022-12-11T15:58:19.763Z,30.25
2022-12-11T16:00:46.350Z,33.55
2022-12-11T16:03:16.484Z,29.00
2022-12-11T16:05:43.539Z,32.03
2022-12-11T16:08:13.656Z,33.15
2022-12-11T16:10:40.331Z,32.08
2022-12-11T16:13:06.832Z,35.13
2022-12-11T16:15:33.511Z,35.47
2022-12-11T16:18:01.572Z,35.65
2022-12-11T16:20:29.986Z,34.03
2022-12-11T16:22:57.064Z,33.03
2022-12-11T16:25:23.675Z,31.17
2022-12-11T16:27:50.393Z,34.67
2022-12-11T16:30:17.243Z,44.05
2022-12-11T16:32:43.811Z,31.20
2022-12-11T16:35:10.547Z,30.70
2022-12-11T16:37:38.750Z,31.48
2022-12-11T16:40:06.320Z,32.10
2022-12-11T16:42:32.985Z,34.95
2022-12-11T16:45:04.391Z,32.05
2022-12-11T16:47:30.942Z,32.05
2022-12-11T16:49:58.135Z,28.38
2022-12-11T16:52:24.739Z,32.05
2022-12-11T16:54:52.658Z,30.25
2022-12-11T16:57:19.265Z,27.90
2022-12-11T16:59:47.248Z,35.28
2022-12-11T17:02:13.981Z,30.92
2022-12-11T17:04:40.882Z,31.00
2022-12-11T17:07:07.679Z,29.88
2022-12-11T17:09:34.451Z,34.25
2022-12-11T17:12:02.636Z,33.45
2022-12-11T17:14:29.201Z,41.58
2022-12-11T17:16:57.071Z,49.20
2022-12-11T17:19:23.649Z,57.08
2022-12-11T17:21:51.770Z,47.90
2022-12-11T17:24:18.557Z,46.30
2022-12-11T17:26:45.130Z,42.20
2022-12-11T17:29:13.597Z,38.03
2022-12-11T17:31:40.657Z,36.42
2022-12-11T17:34:07.751Z,35.30
2022-12-11T17:36:34.477Z,36.83
2022-12-11T17:39:01.010Z,37.50
2022-12-11T17:41:27.511Z,40.08
2022-12-11T17:43:54.151Z,35.83
2022-12-11T17:46:22.444Z,38.90
2022-12-11T17:48:49.020Z,42.90
2022-12-11T17:51:17.287Z,41.45
2022-12-11T17:53:43.761Z,39.95
2022-12-11T17:56:10.500Z,36.08
2022-12-11T17:58:36.995Z,34.05
2022-12-11T18:01:07.540Z,31.20
2022-12-11T18:03:36.644Z,34.33
2022-12-11T18:06:05.379Z,39.30
2022-12-11T18:08:32.397Z,48.28
2022-12-11T18:11:05.024Z,34.25
2022-12-11T18:13:31.761Z,32.80
2022-12-11T18:16:02.420Z,36.40
2022-12-11T18:18:29.068Z,31.70
2022-12-11T18:20:57.259Z,34.55
2022-12-11T18:23:23.956Z,36.42
2022-12-11T18:25:50.584Z,38.15
2022-12-11T18:28:17.200Z,34.22
2022-12-11T18:30:43.907Z,32.85
2022-12-11T18:33:10.616Z,40.53
2022-12-11T18:35:37.321Z,36.78
2022-12-11T18:38:05.237Z,41.65
2022-12-11T18:40:31.915Z,42.55
2022-12-11T18:42:58.517Z,39.30
2022-12-11T18:45:25.112Z,39.95
2022-12-11T18:47:51.827Z,37.67
2022-12-11T18:50:18.610Z,42.55
2022-12-11T18:52:45.244Z,40.75
2022-12-11T18:55:13.333Z,37.78
2022-12-11T18:57:40.307Z,42.75
2022-12-11T19:00:08.222Z,43.05
2022-12-11T19:02:35.320Z,42.13
2022-12-11T19:05:02.042Z,38.80
2022-12-11T19:07:28.603Z,37.85
2022-12-11T19:09:55.234Z,36.13
2022-12-11T19:12:23.095Z,39.72
2022-12-11T19:14:49.618Z,34.95
2022-12-11T19:17:16.160Z,35.42
2022-12-11T19:19:42.724Z,37.42
2022-12-11T19:22:09.289Z,39.28
2022-12-11T19:24:35.937Z,37.13
2022-12-11T19:27:02.465Z,33.40
2022-12-11T19:29:31.227Z,33.03
2022-12-11T19:31:58.943Z,32.42
2022-12-11T19:34:25.441Z,34.10
2022-12-11T19:36:51.982Z,35.25
2022-12-11T19:39:18.594Z,34.85
2022-12-11T19:41:45.893Z,35.22
2022-12-11T19:44:12.523Z,40.08
2022-12-11T19:46:40.975Z,36.05
2022-12-11T19:49:07.695Z,37.42
2022-12-11T19:51:36.648Z,38.28
2022-12-11T19:54:04.143Z,36.60
2022-12-11T19:56:31.646Z,36.85
2022-12-11T19:58:58.503Z,33.85
2022-12-11T20:01:27.549Z,37.28
2022-12-11T20:03:56.968Z,39.55
2022-12-11T20:06:24.159Z,36.72
2022-12-11T20:08:50.871Z,40.30
2022-12-11T20:11:19.027Z,38.38
2022-12-11T20:13:46.185Z,33.53
2022-12-11T20:16:13.448Z,37.63
2022-12-11T20:18:40.068Z,32.97
2022-12-11T20:21:09.530Z,37.60
2022-12-11T20:23:36.081Z,39.40
2022-12-11T20:26:07.015Z,40.55
2022-12-11T20:28:33.548Z,39.67
2022-12-11T20:31:04.090Z,39.95
2022-12-11T20:33:30.601Z,33.38
2022-12-11T20:35:57.310Z,36.20
2022-12-11T20:38:27.748Z,36.60
2022-12-11T20:40:57.827Z,31.25
2022-12-11T20:43:24.340Z,38.05
2022-12-11T20:45:50.989Z,37.45
2022-12-11T20:48:17.876Z,34.28
2022-12-11T20:50:44.467Z,36.03
2022-12-11T20:53:10.971Z,35.90
2022-12-11T20:55:40.714Z,33.88
2022-12-11T20:58:07.478Z,38.42
2022-12-11T21:00:35.213Z,40.85
2022-12-11T21:03:01.792Z,33.45
2022-12-11T21:05:28.423Z,37.80
2022-12-11T21:07:55.437Z,40.22
2022-12-11T21:10:22.642Z,37.65
2022-12-11T21:12:50.568Z,38.03
2022-12-11T21:15:17.146Z,35.15
2022-12-11T21:17:43.773Z,38.40
2022-12-11T21:20:10.866Z,39.95
2022-12-11T21:22:37.551Z,40.17
2022-12-11T21:25:04.611Z,40.53
2022-12-11T21:27:31.149Z,37.25
2022-12-11T21:29:59.120Z,37.35
2022-12-11T21:32:25.731Z,36.95
2022-12-11T21:34:52.278Z,39.17
2022-12-11T21:37:18.806Z,42.92
2022-12-11T21:39:45.474Z,39.35
2022-12-11T21:42:11.955Z,39.60
2022-12-11T21:45:31.410Z,42.22
2022-12-11T21:47:26.372Z,38.58
2022-12-11T21:49:52.936Z,44.17
2022-12-11T21:52:19.632Z,39.53
2022-12-11T21:54:46.166Z,39.42
2022-12-11T21:57:12.678Z,38.63
2022-12-11T21:59:39.197Z,40.75
2022-12-11T22:02:05.862Z,40.25
2022-12-11T22:04:33.746Z,36.20
2022-12-11T22:07:00.226Z,38.97
2022-12-11T22:09:26.837Z,36.58
2022-12-11T22:11:58.105Z,40.08
2022-12-11T22:14:25.751Z,39.35
2022-12-11T22:16:52.281Z,35.33
2022-12-11T22:19:18.860Z,42.53
2022-12-11T22:21:46.937Z,35.60
2022-12-11T22:24:13.546Z,44.63
2022-12-11T22:26:40.272Z,42.13
2022-12-11T22:29:07.247Z,37.17
2022-12-11T22:31:33.887Z,38.10
2022-12-11T22:34:00.576Z,35.17
2022-12-11T22:36:27.281Z,40.75
2022-12-11T22:38:55.443Z,37.97
2022-12-11T22:41:24.750Z,42.65
2022-12-11T22:43:51.890Z,38.00
2022-12-11T22:46:19.848Z,38.75
2022-12-11T22:48:46.429Z,39.90
2022-12-11T22:51:13.039Z,37.92
2022-12-11T22:53:39.580Z,41.33
2022-12-11T22:56:08.966Z,40.70
2022-12-11T22:58:35.806Z,39.33
2022-12-11T23:01:03.434Z,41.53
2022-12-11T23:03:30.039Z,39.75
2022-12-11T23:05:58.792Z,36.97
2022-12-11T23:08:28.601Z,39.28
2022-12-11T23:10:55.242Z,41.85
2022-12-11T23:13:23.188Z,39.55
2022-12-11T23:15:49.696Z,38.60
2022-12-11T23:18:16.225Z,39.00
2022-12-11T23:20:42.753Z,37.63
2022-12-11T23:23:09.364Z,40.60
2022-12-11T23:25:35.877Z,40.47
2022-12-11T23:28:02.405Z,38.38
2022-12-11T23:30:30.504Z,37.47
2022-12-11T23:32:57.102Z,33.67
2022-12-11T23:35:23.596Z,37.13
2022-12-11T23:37:50.110Z,36.28
2022-12-11T23:40:16.798Z,35.42
2022-12-11T23:42:43.289Z,37.42
2022-12-11T23:45:10.266Z,35.00
2022-12-11T23:47:38.317Z,37.55
2022-12-11T23:50:05.602Z,37.15
2022-12-11T23:52:32.105Z,35.47
2022-12-11T23:54:58.606Z,36.38
2022-12-11T23:57:25.137Z,36.17
2022-12-11T23:59:51.705Z,38.97
